Weather at Darley Moor Airfield

Public forecast

Using degrees Celsius for public forecast. Weather courtesy of forecast.io.

Closest aviation weather report (METAR) to Darley Moor Airfield

Closest report is East Midlands Airport, 17.3 nm (32.1 km) ESE.

2024/06/18 22:20 (retrieved 22 minutes ago)

EGNX 182220Z 05007KT 9999 FEW046 12/10 Q1019

Closest aviation forecast (TAF) to Darley Moor Airfield

Closest forecast is East Midlands Airport, 17.3 nm (32.1 km) ESE.

2024/06/18 19:14 Ammendment (retrieved 3 hours ago)

TAF AMD EGNX 181910Z 1819/1918 28006KT 9999 SCT025 BECMG 1819/1822 02010KT TEMPO 1819/1822 7000 SHRA PROB40 TEMPO 1819/1821 3000 +SHRA TSRA TEMPO 1820/1906 BKN014